Flugplatz Schleswig Airport

Bericht für ETNS

vom 25.01. um 21:20 UTC

Wind 12 kt aus 220°

Sichtweite 2700 m

Temperatur 3.0°C

Taupunkt 2.0°C

Luftfeuchtigkeit 93%

Luftdruck 1018 hPa

ETNS 252120Z AUTO 22012KT 2700 // ////// 03/02 Q1018 ///
Keine Prognose (TAF) verfügbar.
Impressum